sensor_id;sensor_type;location;lat;lon;timestamp;temperature;humidity
23259;DHT22;11798;51.528;7.240;2023-04-01T00:02:17;9.50;99.90
23259;DHT22;11798;51.528;7.240;2023-04-01T00:04:43;9.50;99.90
23259;DHT22;11798;51.528;7.240;2023-04-01T00:07:09;9.50;99.90
23259;DHT22;11798;51.528;7.240;2023-04-01T00:09:34;9.50;99.90
23259;DHT22;11798;51.528;7.240;2023-04-01T00:12:00;9.50;99.90
23259;DHT22;11798;51.528;7.240;2023-04-01T00:14:26;9.40;99.90
23259;DHT22;11798;51.528;7.240;2023-04-01T00:16:51;9.40;99.90
23259;DHT22;11798;51.528;7.240;2023-04-01T00:19:18;9.40;99.90
23259;DHT22;11798;51.528;7.240;2023-04-01T00:21:43;9.40;99.90
23259;DHT22;11798;51.528;7.240;2023-04-01T00:24:09;9.40;99.90
23259;DHT22;11798;51.528;7.240;2023-04-01T00:26:34;9.40;99.90
23259;DHT22;11798;51.528;7.240;2023-04-01T00:29:00;9.40;99.90
23259;DHT22;11798;51.528;7.240;2023-04-01T00:31:26;9.40;99.90
23259;DHT22;11798;51.528;7.240;2023-04-01T00:33:52;9.40;99.90
23259;DHT22;11798;51.528;7.240;2023-04-01T00:36:18;9.40;99.90
23259;DHT22;11798;51.528;7.240;2023-04-01T00:38:44;9.40;99.90
23259;DHT22;11798;51.528;7.240;2023-04-01T00:41:11;9.40;99.90
23259;DHT22;11798;51.528;7.240;2023-04-01T00:43:39;9.40;99.90
23259;DHT22;11798;51.528;7.240;2023-04-01T00:46:05;9.40;99.90
23259;DHT22;11798;51.528;7.240;2023-04-01T00:48:32;9.30;99.90
23259;DHT22;11798;51.528;7.240;2023-04-01T00:53:27;9.30;99.90
23259;DHT22;11798;51.528;7.240;2023-04-01T00:58:31;9.30;99.90
23259;DHT22;11798;51.528;7.240;2023-04-01T01:00:58;9.30;99.90
23259;DHT22;11798;51.528;7.240;2023-04-01T01:03:24;9.40;99.90
23259;DHT22;11798;51.528;7.240;2023-04-01T01:08:35;9.30;99.90
23259;DHT22;11798;51.528;7.240;2023-04-01T01:11:04;9.30;99.90
23259;DHT22;11798;51.528;7.240;2023-04-01T01:13:33;9.30;99.90
23259;DHT22;11798;51.528;7.240;2023-04-01T01:36:16;9.20;99.90
23259;DHT22;11798;51.528;7.240;2023-04-01T01:38:44;9.20;99.90
23259;DHT22;11798;51.528;7.240;2023-04-01T01:41:11;9.20;99.90
23259;DHT22;11798;51.528;7.240;2023-04-01T01:43:40;9.20;99.90
23259;DHT22;11798;51.528;7.240;2023-04-01T01:46:11;9.20;99.90
23259;DHT22;11798;51.528;7.240;2023-04-01T01:48:38;9.20;99.90
23259;DHT22;11798;51.528;7.240;2023-04-01T01:51:06;9.20;99.90
23259;DHT22;11798;51.528;7.240;2023-04-01T01:53:32;9.20;99.90
23259;DHT22;11798;51.528;7.240;2023-04-01T01:55:57;9.20;99.90
23259;DHT22;11798;51.528;7.240;2023-04-01T02:00:56;9.30;99.90
23259;DHT22;11798;51.528;7.240;2023-04-01T02:03:23;9.20;99.90
23259;DHT22;11798;51.528;7.240;2023-04-01T02:05:50;9.20;99.90
23259;DHT22;11798;51.528;7.240;2023-04-01T02:08:16;9.20;99.90
23259;DHT22;11798;51.528;7.240;2023-04-01T02:10:48;9.10;99.90
23259;DHT22;11798;51.528;7.240;2023-04-01T02:16:05;9.20;99.90
23259;DHT22;11798;51.528;7.240;2023-04-01T02:18:33;9.20;99.90
23259;DHT22;11798;51.528;7.240;2023-04-01T02:21:00;9.20;99.90
23259;DHT22;11798;51.528;7.240;2023-04-01T02:23:26;9.20;99.90
23259;DHT22;11798;51.528;7.240;2023-04-01T02:25:53;9.20;99.90
23259;DHT22;11798;51.528;7.240;2023-04-01T02:28:18;9.20;99.90
23259;DHT22;11798;51.528;7.240;2023-04-01T02:30:45;9.20;99.90
23259;DHT22;11798;51.528;7.240;2023-04-01T02:33:12;9.10;99.90
23259;DHT22;11798;51.528;7.240;2023-04-01T02:35:37;9.10;99.90
23259;DHT22;11798;51.528;7.240;2023-04-01T02:38:03;9.10;99.90
23259;DHT22;11798;51.528;7.240;2023-04-01T02:40:29;9.20;99.90
23259;DHT22;11798;51.528;7.240;2023-04-01T02:42:54;9.10;99.90
23259;DHT22;11798;51.528;7.240;2023-04-01T02:45:20;9.10;99.90
23259;DHT22;11798;51.528;7.240;2023-04-01T02:47:46;9.10;99.90
23259;DHT22;11798;51.528;7.240;2023-04-01T02:50:11;9.10;99.90
23259;DHT22;11798;51.528;7.240;2023-04-01T02:52:37;9.10;99.90
23259;DHT22;11798;51.528;7.240;2023-04-01T02:55:02;9.10;99.90
23259;DHT22;11798;51.528;7.240;2023-04-01T02:57:28;9.10;99.90
23259;DHT22;11798;51.528;7.240;2023-04-01T02:59:54;9.10;99.90
23259;DHT22;11798;51.528;7.240;2023-04-01T03:02:20;9.10;99.90
23259;DHT22;11798;51.528;7.240;2023-04-01T03:04:45;9.10;99.90
23259;DHT22;11798;51.528;7.240;2023-04-01T03:07:11;9.10;99.90
23259;DHT22;11798;51.528;7.240;2023-04-01T03:09:37;9.10;99.90
23259;DHT22;11798;51.528;7.240;2023-04-01T03:12:03;9.10;99.90
23259;DHT22;11798;51.528;7.240;2023-04-01T03:14:28;9.10;99.90
23259;DHT22;11798;51.528;7.240;2023-04-01T03:16:54;9.10;99.90
23259;DHT22;11798;51.528;7.240;2023-04-01T03:19:20;9.10;99.90
23259;DHT22;11798;51.528;7.240;2023-04-01T03:21:45;9.10;99.90
23259;DHT22;11798;51.528;7.240;2023-04-01T03:24:11;9.10;99.90
23259;DHT22;11798;51.528;7.240;2023-04-01T03:26:36;9.00;99.90
23259;DHT22;11798;51.528;7.240;2023-04-01T03:29:02;9.00;99.90
23259;DHT22;11798;51.528;7.240;2023-04-01T03:31:27;9.10;99.90
23259;DHT22;11798;51.528;7.240;2023-04-01T03:33:53;9.10;99.90
23259;DHT22;11798;51.528;7.240;2023-04-01T03:36:19;9.10;99.90
23259;DHT22;11798;51.528;7.240;2023-04-01T03:38:45;9.10;99.90
23259;DHT22;11798;51.528;7.240;2023-04-01T03:41:15;9.10;99.90
23259;DHT22;11798;51.528;7.240;2023-04-01T03:43:41;9.20;99.90
23259;DHT22;11798;51.528;7.240;2023-04-01T03:46:07;9.20;99.90
23259;DHT22;11798;51.528;7.240;2023-04-01T03:48:32;9.10;99.90
23259;DHT22;11798;51.528;7.240;2023-04-01T03:50:58;9.20;99.90
23259;DHT22;11798;51.528;7.240;2023-04-01T03:53:23;9.20;99.90
23259;DHT22;11798;51.528;7.240;2023-04-01T03:55:49;9.10;99.90
23259;DHT22;11798;51.528;7.240;2023-04-01T03:58:16;9.10;99.90
23259;DHT22;11798;51.528;7.240;2023-04-01T04:00:42;9.00;99.90
23259;DHT22;11798;51.528;7.240;2023-04-01T04:03:07;9.10;99.90
23259;DHT22;11798;51.528;7.240;2023-04-01T04:05:33;9.10;99.90
23259;DHT22;11798;51.528;7.240;2023-04-01T04:07:58;9.10;99.90
23259;DHT22;11798;51.528;7.240;2023-04-01T04:10:24;9.10;99.90
23259;DHT22;11798;51.528;7.240;2023-04-01T04:12:50;9.10;99.90
23259;DHT22;11798;51.528;7.240;2023-04-01T04:15:16;9.10;99.90
23259;DHT22;11798;51.528;7.240;2023-04-01T04:17:41;9.10;99.90
23259;DHT22;11798;51.528;7.240;2023-04-01T04:20:07;9.10;99.90
23259;DHT22;11798;51.528;7.240;2023-04-01T04:22:34;9.10;99.90
23259;DHT22;11798;51.528;7.240;2023-04-01T04:25:00;9.10;99.90
23259;DHT22;11798;51.528;7.240;2023-04-01T04:27:26;9.10;99.90
23259;DHT22;11798;51.528;7.240;2023-04-01T04:29:51;9.20;99.90
23259;DHT22;11798;51.528;7.240;2023-04-01T04:32:17;9.20;99.90
23259;DHT22;11798;51.528;7.240;2023-04-01T04:34:42;9.10;99.90
23259;DHT22;11798;51.528;7.240;2023-04-01T04:37:08;9.20;99.90
23259;DHT22;11798;51.528;7.240;2023-04-01T04:39:33;9.20;99.90
23259;DHT22;11798;51.528;7.240;2023-04-01T04:41:59;9.20;99.90
23259;DHT22;11798;51.528;7.240;2023-04-01T04:44:24;9.20;99.90
23259;DHT22;11798;51.528;7.240;2023-04-01T04:46:50;9.20;99.90
23259;DHT22;11798;51.528;7.240;2023-04-01T04:49:15;9.20;99.90
23259;DHT22;11798;51.528;7.240;2023-04-01T04:51:41;9.20;99.90
23259;DHT22;11798;51.528;7.240;2023-04-01T04:54:08;9.20;99.90
23259;DHT22;11798;51.528;7.240;2023-04-01T04:56:34;9.20;99.90
23259;DHT22;11798;51.528;7.240;2023-04-01T04:59:01;9.20;99.90
23259;DHT22;11798;51.528;7.240;2023-04-01T05:01:26;9.20;99.90
23259;DHT22;11798;51.528;7.240;2023-04-01T05:03:52;9.20;99.90
23259;DHT22;11798;51.528;7.240;2023-04-01T05:06:18;9.20;99.90
23259;DHT22;11798;51.528;7.240;2023-04-01T05:08:44;9.20;99.90
23259;DHT22;11798;51.528;7.240;2023-04-01T05:11:11;9.20;99.90
23259;DHT22;11798;51.528;7.240;2023-04-01T05:13:37;9.20;99.90
23259;DHT22;11798;51.528;7.240;2023-04-01T05:16:02;9.20;99.90
23259;DHT22;11798;51.528;7.240;2023-04-01T05:18:28;9.20;99.90
23259;DHT22;11798;51.528;7.240;2023-04-01T05:20:54;9.20;99.90
23259;DHT22;11798;51.528;7.240;2023-04-01T05:23:20;9.20;99.90
23259;DHT22;11798;51.528;7.240;2023-04-01T05:25:47;9.20;99.90
23259;DHT22;11798;51.528;7.240;2023-04-01T05:28:12;9.20;99.90
23259;DHT22;11798;51.528;7.240;2023-04-01T05:30:41;9.30;99.90
23259;DHT22;11798;51.528;7.240;2023-04-01T05:33:07;9.20;99.90
23259;DHT22;11798;51.528;7.240;2023-04-01T05:35:33;9.30;99.90
23259;DHT22;11798;51.528;7.240;2023-04-01T05:37:59;9.30;99.90
23259;DHT22;11798;51.528;7.240;2023-04-01T05:40:24;9.30;99.90
23259;DHT22;11798;51.528;7.240;2023-04-01T05:42:50;9.30;99.90
23259;DHT22;11798;51.528;7.240;2023-04-01T05:45:15;9.30;99.90
23259;DHT22;11798;51.528;7.240;2023-04-01T05:47:41;9.30;99.90
23259;DHT22;11798;51.528;7.240;2023-04-01T05:50:08;9.30;99.90
23259;DHT22;11798;51.528;7.240;2023-04-01T05:52:33;9.30;99.90
23259;DHT22;11798;51.528;7.240;2023-04-01T05:54:59;9.30;99.90
23259;DHT22;11798;51.528;7.240;2023-04-01T05:57:25;9.30;99.90
23259;DHT22;11798;51.528;7.240;2023-04-01T05:59:51;9.30;99.90
23259;DHT22;11798;51.528;7.240;2023-04-01T06:02:17;9.30;99.90
23259;DHT22;11798;51.528;7.240;2023-04-01T06:04:43;9.40;99.90
23259;DHT22;11798;51.528;7.240;2023-04-01T06:07:12;9.40;99.90
23259;DHT22;11798;51.528;7.240;2023-04-01T06:09:38;9.40;99.90
23259;DHT22;11798;51.528;7.240;2023-04-01T06:12:17;9.40;99.90
23259;DHT22;11798;51.528;7.240;2023-04-01T06:45:52;9.40;99.90
23259;DHT22;11798;51.528;7.240;2023-04-01T06:56:27;9.50;99.90
23259;DHT22;11798;51.528;7.240;2023-04-01T06:58:55;9.40;99.90
23259;DHT22;11798;51.528;7.240;2023-04-01T07:01:28;9.50;99.90
23259;DHT22;11798;51.528;7.240;2023-04-01T07:03:56;9.50;99.90
23259;DHT22;11798;51.528;7.240;2023-04-01T07:08:51;9.50;99.90
23259;DHT22;11798;51.528;7.240;2023-04-01T07:11:25;9.50;99.90
23259;DHT22;11798;51.528;7.240;2023-04-01T07:13:53;9.60;99.90
23259;DHT22;11798;51.528;7.240;2023-04-01T07:16:34;9.50;99.90
23259;DHT22;11798;51.528;7.240;2023-04-01T07:21:40;9.50;99.90
23259;DHT22;11798;51.528;7.240;2023-04-01T07:24:26;9.50;99.90
23259;DHT22;11798;51.528;7.240;2023-04-01T07:26:54;9.60;99.90
23259;DHT22;11798;51.528;7.240;2023-04-01T07:29:20;9.60;99.90
23259;DHT22;11798;51.528;7.240;2023-04-01T07:36:53;9.80;99.90
23259;DHT22;11798;51.528;7.240;2023-04-01T07:41:49;9.80;99.90
23259;DHT22;11798;51.528;7.240;2023-04-01T07:44:28;9.80;99.90
23259;DHT22;11798;51.528;7.240;2023-04-01T07:47:02;9.80;99.90
23259;DHT22;11798;51.528;7.240;2023-04-01T07:49:45;9.70;99.90
23259;DHT22;11798;51.528;7.240;2023-04-01T08:05:16;9.80;99.90
23259;DHT22;11798;51.528;7.240;2023-04-01T08:21:02;9.80;99.90
23259;DHT22;11798;51.528;7.240;2023-04-01T08:23:33;9.80;99.90
23259;DHT22;11798;51.528;7.240;2023-04-01T08:28:35;9.90;99.90
23259;DHT22;11798;51.528;7.240;2023-04-01T08:31:06;9.90;99.90
23259;DHT22;11798;51.528;7.240;2023-04-01T08:33:34;9.90;99.90
23259;DHT22;11798;51.528;7.240;2023-04-01T08:36:11;9.80;99.90
23259;DHT22;11798;51.528;7.240;2023-04-01T08:38:40;9.80;99.90
23259;DHT22;11798;51.528;7.240;2023-04-01T09:01:25;9.80;99.90
23259;DHT22;11798;51.528;7.240;2023-04-01T09:03:58;9.80;99.90
23259;DHT22;11798;51.528;7.240;2023-04-01T09:16:40;9.80;99.90
23259;DHT22;11798;51.528;7.240;2023-04-01T09:51:18;10.00;99.90
23259;DHT22;11798;51.528;7.240;2023-04-01T09:54:09;10.00;99.90
23259;DHT22;11798;51.528;7.240;2023-04-01T11:03:42;10.60;99.90
23259;DHT22;11798;51.528;7.240;2023-04-01T11:29:12;10.50;99.90
23259;DHT22;11798;51.528;7.240;2023-04-01T11:39:47;10.40;99.90
23259;DHT22;11798;51.528;7.240;2023-04-01T11:45:34;10.50;99.90
23259;DHT22;11798;51.528;7.240;2023-04-01T11:47:56;10.50;99.90
23259;DHT22;11798;51.528;7.240;2023-04-01T11:53:06;10.60;99.90
23259;DHT22;11798;51.528;7.240;2023-04-01T12:11:52;10.50;99.90
23259;DHT22;11798;51.528;7.240;2023-04-01T12:14:40;10.50;99.90
23259;DHT22;11798;51.528;7.240;2023-04-01T12:19:54;10.50;99.90
23259;DHT22;11798;51.528;7.240;2023-04-01T12:22:33;10.50;99.90
23259;DHT22;11798;51.528;7.240;2023-04-01T12:36:45;10.50;99.90
23259;DHT22;11798;51.528;7.240;2023-04-01T12:38:58;10.50;99.90
23259;DHT22;11798;51.528;7.240;2023-04-01T12:49:42;10.50;99.90
23259;DHT22;11798;51.528;7.240;2023-04-01T12:52:04;10.60;99.90
23259;DHT22;11798;51.528;7.240;2023-04-01T12:54:39;10.60;99.90
23259;DHT22;11798;51.528;7.240;2023-04-01T12:57:15;10.60;99.90
23259;DHT22;11798;51.528;7.240;2023-04-01T12:59:50;10.60;99.90
23259;DHT22;11798;51.528;7.240;2023-04-01T13:02:24;10.60;99.90
23259;DHT22;11798;51.528;7.240;2023-04-01T13:15:50;10.70;99.90
23259;DHT22;11798;51.528;7.240;2023-04-01T13:44:15;10.50;99.90
23259;DHT22;11798;51.528;7.240;2023-04-01T14:02:38;10.60;99.90
23259;DHT22;11798;51.528;7.240;2023-04-01T14:05:23;10.60;99.90
23259;DHT22;11798;51.528;7.240;2023-04-01T14:08:09;10.60;99.90
23259;DHT22;11798;51.528;7.240;2023-04-01T14:10:54;10.50;99.90
23259;DHT22;11798;51.528;7.240;2023-04-01T14:13:23;10.50;99.90
23259;DHT22;11798;51.528;7.240;2023-04-01T14:18:47;10.50;99.90
23259;DHT22;11798;51.528;7.240;2023-04-01T14:26:22;10.50;99.90
23259;DHT22;11798;51.528;7.240;2023-04-01T14:31:42;10.50;99.90
23259;DHT22;11798;51.528;7.240;2023-04-01T14:49:23;10.50;99.90
23259;DHT22;11798;51.528;7.240;2023-04-01T14:51:49;10.50;99.90
23259;DHT22;11798;51.528;7.240;2023-04-01T14:54:21;10.50;99.90
23259;DHT22;11798;51.528;7.240;2023-04-01T14:59:41;10.60;99.90
23259;DHT22;11798;51.528;7.240;2023-04-01T15:04:39;10.60;99.90
23259;DHT22;11798;51.528;7.240;2023-04-01T15:14:32;10.60;99.90
23259;DHT22;11798;51.528;7.240;2023-04-01T15:22:36;10.60;99.90
23259;DHT22;11798;51.528;7.240;2023-04-01T15:27:51;10.70;99.90
23259;DHT22;11798;51.528;7.240;2023-04-01T15:38:09;10.80;99.90
23259;DHT22;11798;51.528;7.240;2023-04-01T16:03:24;10.60;99.90
23259;DHT22;11798;51.528;7.240;2023-04-01T16:16:43;10.60;99.90
23259;DHT22;11798;51.528;7.240;2023-04-01T16:19:21;10.60;99.90
23259;DHT22;11798;51.528;7.240;2023-04-01T16:21:59;10.50;99.90
23259;DHT22;11798;51.528;7.240;2023-04-01T16:27:02;10.60;99.90
23259;DHT22;11798;51.528;7.240;2023-04-01T16:29:32;10.50;99.90
23259;DHT22;11798;51.528;7.240;2023-04-01T16:35:03;10.50;99.90
23259;DHT22;11798;51.528;7.240;2023-04-01T16:37:36;10.50;99.90
23259;DHT22;11798;51.528;7.240;2023-04-01T16:47:49;10.40;99.90
23259;DHT22;11798;51.528;7.240;2023-04-01T16:50:30;10.50;99.90
23259;DHT22;11798;51.528;7.240;2023-04-01T16:58:06;10.40;99.90
23259;DHT22;11798;51.528;7.240;2023-04-01T17:00:53;10.40;99.90
23259;DHT22;11798;51.528;7.240;2023-04-01T17:03:29;10.30;99.90
23259;DHT22;11798;51.528;7.240;2023-04-01T17:16:52;10.40;99.90
23259;DHT22;11798;51.528;7.240;2023-04-01T17:21:48;10.30;99.90
23259;DHT22;11798;51.528;7.240;2023-04-01T17:31:46;10.50;99.90
23259;DHT22;11798;51.528;7.240;2023-04-01T17:42:52;10.40;99.90
23259;DHT22;11798;51.528;7.240;2023-04-01T17:54:50;10.40;99.90
23259;DHT22;11798;51.528;7.240;2023-04-01T18:02:39;10.30;99.90
23259;DHT22;11798;51.528;7.240;2023-04-01T18:05:26;10.30;99.90
23259;DHT22;11798;51.528;7.240;2023-04-01T18:22:48;10.20;99.90
23259;DHT22;11798;51.528;7.240;2023-04-01T18:27:48;10.20;99.90
23259;DHT22;11798;51.528;7.240;2023-04-01T18:30:21;10.30;99.90
23259;DHT22;11798;51.528;7.240;2023-04-01T18:32:57;10.30;99.90
23259;DHT22;11798;51.528;7.240;2023-04-01T18:41:10;10.20;99.90
23259;DHT22;11798;51.528;7.240;2023-04-01T18:45:57;10.20;99.90
23259;DHT22;11798;51.528;7.240;2023-04-01T18:51:14;10.10;99.90
23259;DHT22;11798;51.528;7.240;2023-04-01T18:53:46;10.10;99.90
23259;DHT22;11798;51.528;7.240;2023-04-01T18:56:14;10.10;99.90
23259;DHT22;11798;51.528;7.240;2023-04-01T18:58:54;10.10;99.90
23259;DHT22;11798;51.528;7.240;2023-04-01T19:01:24;10.20;99.90
23259;DHT22;11798;51.528;7.240;2023-04-01T19:21:55;10.00;99.90
23259;DHT22;11798;51.528;7.240;2023-04-01T19:35:24;9.80;99.90
23259;DHT22;11798;51.528;7.240;2023-04-01T19:59:30;9.40;99.90
23259;DHT22;11798;51.528;7.240;2023-04-01T20:04:42;9.30;99.90
23259;DHT22;11798;51.528;7.240;2023-04-01T20:07:13;9.30;99.90
23259;DHT22;11798;51.528;7.240;2023-04-01T20:09:45;9.30;99.90
23259;DHT22;11798;51.528;7.240;2023-04-01T20:12:35;9.30;99.90
23259;DHT22;11798;51.528;7.240;2023-04-01T20:15:00;9.20;99.90
23259;DHT22;11798;51.528;7.240;2023-04-01T20:25:12;9.10;99.90
23259;DHT22;11798;51.528;7.240;2023-04-01T20:27:44;9.00;99.90
23259;DHT22;11798;51.528;7.240;2023-04-01T20:30:17;9.00;99.90
23259;DHT22;11798;51.528;7.240;2023-04-01T20:37:47;8.90;99.90
23259;DHT22;11798;51.528;7.240;2023-04-01T20:45:38;8.70;99.90
23259;DHT22;11798;51.528;7.240;2023-04-01T20:53:34;8.60;99.90
23259;DHT22;11798;51.528;7.240;2023-04-01T20:58:49;8.60;99.90
23259;DHT22;11798;51.528;7.240;2023-04-01T21:03:58;8.50;99.90
23259;DHT22;11798;51.528;7.240;2023-04-01T21:09:03;8.40;99.90
23259;DHT22;11798;51.528;7.240;2023-04-01T21:37:58;7.80;99.90
23259;DHT22;11798;51.528;7.240;2023-04-01T21:40:36;7.80;99.90
23259;DHT22;11798;51.528;7.240;2023-04-01T21:59:15;7.60;99.90
23259;DHT22;11798;51.528;7.240;2023-04-01T22:02:10;7.60;99.90
23259;DHT22;11798;51.528;7.240;2023-04-01T22:04:43;7.70;99.90
23259;DHT22;11798;51.528;7.240;2023-04-01T22:07:29;7.60;99.90
23259;DHT22;11798;51.528;7.240;2023-04-01T22:12:45;7.60;99.90
23259;DHT22;11798;51.528;7.240;2023-04-01T22:15:16;7.60;99.90
23259;DHT22;11798;51.528;7.240;2023-04-01T22:17:46;7.50;99.90
23259;DHT22;11798;51.528;7.240;2023-04-01T22:30:59;7.30;99.90
23259;DHT22;11798;51.528;7.240;2023-04-01T22:33:29;7.30;99.90
23259;DHT22;11798;51.528;7.240;2023-04-01T22:41:01;7.10;99.90
23259;DHT22;11798;51.528;7.240;2023-04-01T22:43:34;7.20;99.90
23259;DHT22;11798;51.528;7.240;2023-04-01T22:48:47;7.10;99.90
23259;DHT22;11798;51.528;7.240;2023-04-01T22:51:22;7.00;99.90
23259;DHT22;11798;51.528;7.240;2023-04-01T22:56:28;7.00;99.90
23259;DHT22;11798;51.528;7.240;2023-04-01T22:59:00;7.00;99.90
23259;DHT22;11798;51.528;7.240;2023-04-01T23:01:29;6.90;99.90
23259;DHT22;11798;51.528;7.240;2023-04-01T23:03:56;6.90;99.90
23259;DHT22;11798;51.528;7.240;2023-04-01T23:06:24;6.90;99.90
23259;DHT22;11798;51.528;7.240;2023-04-01T23:09:25;6.80;99.90
23259;DHT22;11798;51.528;7.240;2023-04-01T23:16:45;6.80;99.90
23259;DHT22;11798;51.528;7.240;2023-04-01T23:19:28;6.80;99.90
23259;DHT22;11798;51.528;7.240;2023-04-01T23:24:30;6.70;99.90
23259;DHT22;11798;51.528;7.240;2023-04-01T23:29:23;6.70;99.90
23259;DHT22;11798;51.528;7.240;2023-04-01T23:32:00;6.60;99.90
23259;DHT22;11798;51.528;7.240;2023-04-01T23:34:32;6.60;99.90
23259;DHT22;11798;51.528;7.240;2023-04-01T23:37:00;6.60;99.90
23259;DHT22;11798;51.528;7.240;2023-04-01T23:41:55;6.60;99.90
23259;DHT22;11798;51.528;7.240;2023-04-01T23:44:21;6.50;99.90
23259;DHT22;11798;51.528;7.240;2023-04-01T23:46:49;6.60;99.90
23259;DHT22;11798;51.528;7.240;2023-04-01T23:49:28;6.60;99.90
23259;DHT22;11798;51.528;7.240;2023-04-01T23:51:56;6.60;99.90
23259;DHT22;11798;51.528;7.240;2023-04-01T23:54:24;6.50;99.90
23259;DHT22;11798;51.528;7.240;2023-04-01T23:56:53;6.50;99.90
23259;DHT22;11798;51.528;7.240;2023-04-01T23:59:32;6.40;99.90
